Santa Venetia, California
Current Conditions -  °F | °C
As of 1:35 PM on Thursday 23 Oct 2014 (Local Time) from KDVO Reporting Station
Few Clouds Few Clouds  
Wind Chill: 22°   Ceiling: Unl
Heat Index: 22°   Visibility: NA
Dew Point: 15°   Wind: 3mph
Humidity: 64%   Direction: 170°S
Pressure: 30.04"   Gusts: NA
Location:  38.0232°N, 122.547°W
Report Text: KDVO 232035Z AUTO 17003KT FEW026 22/15 A3004 RMK AO2
Loading
Personal Weather Stations






























Interactive Weather Map
Tropical Storm Tracking
New forecast layout! Learn more

10-Day Weather Forecast

Advertisements
Track Severe Weather on mobile